createdAt,value
2023-07-25T00:00:54.704Z,73.37
2023-07-25T00:03:22.691Z,74.08
2023-07-25T00:05:50.073Z,74.15
2023-07-25T00:08:17.555Z,74.22
2023-07-25T00:10:45.351Z,73.73
2023-07-25T00:13:13.345Z,72.76
2023-07-25T00:15:40.711Z,73.53
2023-07-25T00:18:08.780Z,75.68
2023-07-25T00:20:36.165Z,75.47
2023-07-25T00:23:03.450Z,75.73
2023-07-25T00:25:31.192Z,75.62
2023-07-25T00:27:59.482Z,74.79
2023-07-25T00:30:26.907Z,76.12
2023-07-25T00:32:54.696Z,76.52
2023-07-25T00:35:22.231Z,75.77
2023-07-25T00:37:49.616Z,75.75
2023-07-25T00:40:17.285Z,73.91
2023-07-25T00:42:44.904Z,74.04
2023-07-25T00:45:12.348Z,73.13
2023-07-25T00:47:41.077Z,75.12
2023-07-25T00:50:08.987Z,76.86
2023-07-25T00:52:36.412Z,76.99
2023-07-25T00:55:04.471Z,75.79
2023-07-25T00:57:34.667Z,76.45
2023-07-25T01:00:02.152Z,75.90
2023-07-25T01:02:30.438Z,75.65
2023-07-25T01:04:57.931Z,76.83
2023-07-25T01:07:25.402Z,77.11
2023-07-25T01:09:53.057Z,76.86
2023-07-25T01:12:20.459Z,78.05
2023-07-25T01:14:47.789Z,78.25
2023-07-25T01:17:19.949Z,78.25
2023-07-25T01:19:48.762Z,77.04
2023-07-25T01:22:16.902Z,77.52
2023-07-25T01:24:46.809Z,78.24
2023-07-25T01:27:17.961Z,78.71
2023-07-25T01:29:45.849Z,77.78
2023-07-25T01:32:13.363Z,79.42
2023-07-25T01:34:40.743Z,78.11
2023-07-25T01:37:09.699Z,77.52
2023-07-25T01:39:37.053Z,78.03
2023-07-25T01:42:04.840Z,76.34
2023-07-25T01:44:32.616Z,77.80
2023-07-25T01:47:00.068Z,77.27
2023-07-25T01:49:27.544Z,78.12
2023-07-25T01:51:55.309Z,78.87
2023-07-25T01:54:22.701Z,79.02
2023-07-25T01:56:51.073Z,78.92
2023-07-25T01:59:19.848Z,79.11
2023-07-25T02:01:47.398Z,79.51
2023-07-25T02:04:15.114Z,78.51
2023-07-25T02:06:42.535Z,79.05
2023-07-25T02:09:09.906Z,79.32
2023-07-25T02:11:37.649Z,78.85
2023-07-25T02:14:04.988Z,79.93
2023-07-25T02:16:35.168Z,79.49
2023-07-25T02:19:02.923Z,79.97
2023-07-25T02:21:30.660Z,78.57
2023-07-25T02:23:58.114Z,77.89
2023-07-25T02:26:26.622Z,78.35
2023-07-25T02:28:54.093Z,78.98
2023-07-25T02:31:21.694Z,80.39
2023-07-25T02:33:49.687Z,80.22
2023-07-25T02:36:17.712Z,80.05
2023-07-25T02:38:45.273Z,79.47
2023-07-25T02:41:14.276Z,79.94
2023-07-25T02:43:44.139Z,82.26
2023-07-25T02:46:12.485Z,80.40
2023-07-25T02:48:41.410Z,81.57
2023-07-25T02:51:11.884Z,80.86
2023-07-25T02:53:39.933Z,83.40
2023-07-25T02:56:08.091Z,82.10
2023-07-25T02:58:37.096Z,82.32
2023-07-25T03:01:05.546Z,80.63
2023-07-25T03:03:33.482Z,83.37
2023-07-25T03:06:01.460Z,82.68
2023-07-25T03:08:29.765Z,80.92
2023-07-25T03:10:58.019Z,83.50
2023-07-25T03:13:26.278Z,83.45
2023-07-25T03:15:54.901Z,83.61
2023-07-25T03:18:22.500Z,83.70
2023-07-25T03:20:50.423Z,83.40
2023-07-25T03:23:18.338Z,83.61
2023-07-25T03:25:45.932Z,83.71
2023-07-25T03:28:13.806Z,83.22
2023-07-25T03:30:42.623Z,82.55
2023-07-25T03:33:10.241Z,83.50
2023-07-25T03:35:38.160Z,83.23
2023-07-25T03:38:05.911Z,83.34
2023-07-25T03:40:33.326Z,83.04
2023-07-25T03:43:01.339Z,82.96
2023-07-25T03:45:29.105Z,83.48
2023-07-25T03:47:56.511Z,82.45
2023-07-25T03:50:24.246Z,82.70
2023-07-25T03:52:52.190Z,84.62
2023-07-25T03:55:19.688Z,82.77
2023-07-25T03:57:47.126Z,82.13
2023-07-25T04:00:15.271Z,81.72
2023-07-25T04:02:42.462Z,81.90
2023-07-25T04:05:10.693Z,80.61
2023-07-25T04:07:38.265Z,81.23
2023-07-25T04:10:06.499Z,81.19
2023-07-25T04:12:34.509Z,81.91
2023-07-25T04:15:02.240Z,82.49
2023-07-25T04:17:29.814Z,82.44
2023-07-25T04:19:57.641Z,83.14
2023-07-25T04:22:25.211Z,82.84
2023-07-25T04:24:52.842Z,80.29
2023-07-25T04:27:20.557Z,80.68
2023-07-25T04:29:47.895Z,80.84
2023-07-25T04:32:15.490Z,80.24
2023-07-25T04:34:43.464Z,81.55
2023-07-25T04:37:10.852Z,82.75
2023-07-25T04:39:38.195Z,83.25
2023-07-25T04:42:06.784Z,83.63
2023-07-25T04:44:34.187Z,83.20
2023-07-25T04:47:05.160Z,83.13
2023-07-25T04:49:33.027Z,84.47
2023-07-25T04:52:00.398Z,85.82
2023-07-25T04:54:27.753Z,86.81
2023-07-25T04:56:55.768Z,86.07
2023-07-25T04:59:23.424Z,84.70
2023-07-25T05:01:50.886Z,84.11
2023-07-25T05:04:19.171Z,83.65
2023-07-25T05:06:46.740Z,82.97
2023-07-25T05:09:14.176Z,83.15
2023-07-25T05:11:41.916Z,82.71
2023-07-25T05:14:09.529Z,81.90
2023-07-25T05:16:37.071Z,81.19
2023-07-25T05:19:05.090Z,82.01
2023-07-25T05:21:32.737Z,82.50
2023-07-25T05:24:00.664Z,83.78
2023-07-25T05:26:28.719Z,84.56
2023-07-25T05:28:56.112Z,82.15
2023-07-25T05:31:23.683Z,80.59
2023-07-25T05:33:51.474Z,81.13
2023-07-25T05:36:18.839Z,79.22
2023-07-25T05:38:46.261Z,78.83
2023-07-25T05:41:14.044Z,76.57
2023-07-25T05:43:43.271Z,76.87
2023-07-25T05:46:11.158Z,77.04
2023-07-25T05:48:39.370Z,76.53
2023-07-25T05:51:07.329Z,76.40
2023-07-25T05:53:35.076Z,75.23
2023-07-25T05:56:03.078Z,75.40
2023-07-25T05:58:31.244Z,75.54
2023-07-25T06:00:58.815Z,75.96
2023-07-25T06:03:26.933Z,75.56
2023-07-25T06:05:54.357Z,74.74
2023-07-25T06:08:21.736Z,73.86
2023-07-25T06:10:49.688Z,73.96
2023-07-25T06:13:17.243Z,72.65
2023-07-25T06:15:45.589Z,72.04
2023-07-25T06:18:13.314Z,71.73
2023-07-25T06:20:41.110Z,70.03
2023-07-25T06:23:09.148Z,68.60
2023-07-25T06:25:36.857Z,68.04
2023-07-25T06:28:06.273Z,67.65
2023-07-25T06:30:34.100Z,66.84
2023-07-25T06:33:02.985Z,66.87
2023-07-25T06:35:30.336Z,66.08
2023-07-25T06:37:57.968Z,65.67
2023-07-25T06:40:26.072Z,66.24
2023-07-25T06:42:53.484Z,68.04
2023-07-25T06:45:21.058Z,66.42
2023-07-25T06:47:49.456Z,67.57
2023-07-25T06:50:17.149Z,66.32
2023-07-25T06:52:44.602Z,65.49
2023-07-25T06:55:12.378Z,63.83
2023-07-25T06:57:39.988Z,62.26
2023-07-25T07:00:09.320Z,61.86
2023-07-25T07:02:37.339Z,61.46
2023-07-25T07:05:19.257Z,61.57
2023-07-25T07:07:54.514Z,61.31
2023-07-25T07:10:22.021Z,59.76
2023-07-25T07:12:49.829Z,59.21
2023-07-25T07:15:17.702Z,59.14
2023-07-25T07:17:45.102Z,56.32
2023-07-25T07:20:13.020Z,57.23
2023-07-25T07:22:40.864Z,56.30
2023-07-25T07:25:09.772Z,55.74
2023-07-25T07:27:37.625Z,54.10
2023-07-25T07:30:06.273Z,50.19
2023-07-25T07:32:33.924Z,50.68
2023-07-25T07:35:01.466Z,49.93
2023-07-25T07:37:30.630Z,49.28
2023-07-25T07:39:59.521Z,49.47
2023-07-25T07:42:26.911Z,48.85
2023-07-25T07:44:54.667Z,48.32
2023-07-25T07:47:22.205Z,46.53
2023-07-25T07:49:49.549Z,46.49
2023-07-25T07:52:26.000Z,46.70
2023-07-25T07:55:00.910Z,46.96
2023-07-25T07:57:28.426Z,45.12
2023-07-25T07:59:56.568Z,46.20
2023-07-25T08:02:24.477Z,46.21
2023-07-25T08:04:52.560Z,47.71
2023-07-25T08:07:20.239Z,45.88
2023-07-25T08:09:48.099Z,45.42
2023-07-25T08:12:16.693Z,45.42
2023-07-25T08:14:44.807Z,46.92
2023-07-25T08:17:12.316Z,45.89
2023-07-25T08:19:40.989Z,46.80
2023-07-25T08:22:08.658Z,46.07
2023-07-25T08:24:36.572Z,46.23
2023-07-25T08:27:05.723Z,47.77
2023-07-25T08:29:33.666Z,47.26
2023-07-25T08:32:01.720Z,46.94
2023-07-25T08:34:30.295Z,45.58
2023-07-25T08:36:57.578Z,45.02
2023-07-25T08:39:25.041Z,45.97
2023-07-25T08:41:54.219Z,46.74
2023-07-25T08:44:23.017Z,45.06
2023-07-25T08:46:54.246Z,45.20
2023-07-25T08:49:24.965Z,45.87
2023-07-25T08:51:56.722Z,45.72
2023-07-25T08:54:39.434Z,46.44
2023-07-25T08:57:08.286Z,44.57
2023-07-25T08:59:37.105Z,44.77
2023-07-25T09:02:05.380Z,44.00
2023-07-25T09:04:33.900Z,44.95
2023-07-25T09:07:02.102Z,44.40
2023-07-25T09:09:29.545Z,44.23
2023-07-25T09:12:00.365Z,42.56
2023-07-25T09:14:28.636Z,42.50
2023-07-25T09:16:56.841Z,42.42
2023-07-25T09:19:25.030Z,41.47
2023-07-25T09:21:59.127Z,42.36
2023-07-25T09:24:37.289Z,41.63
2023-07-25T09:27:16.904Z,39.63
2023-07-25T09:29:44.844Z,41.02
2023-07-25T09:32:27.454Z,42.83
2023-07-25T09:35:00.256Z,42.25
2023-07-25T09:37:29.802Z,40.92
2023-07-25T09:39:57.344Z,41.68
2023-07-25T09:42:26.089Z,39.09
2023-07-25T09:44:55.530Z,38.91
2023-07-25T09:47:28.485Z,38.05
2023-07-25T09:49:58.218Z,36.58
2023-07-25T09:52:27.004Z,37.51
2023-07-25T09:54:54.473Z,35.94
2023-07-25T09:57:22.492Z,36.04
2023-07-25T09:59:52.579Z,34.99
2023-07-25T10:02:20.168Z,35.02
2023-07-25T10:04:48.954Z,34.72
2023-07-25T10:07:16.663Z,32.98
2023-07-25T10:09:47.304Z,32.67
2023-07-25T10:12:15.193Z,32.29
2023-07-25T10:14:42.778Z,31.26
2023-07-25T10:17:10.617Z,31.84
2023-07-25T10:19:49.620Z,28.14
2023-07-25T10:22:17.649Z,25.17
2023-07-25T10:24:45.630Z,27.81
2023-07-25T10:27:14.158Z,29.22
2023-07-25T10:29:44.371Z,27.28
2023-07-25T10:32:17.745Z,26.59
2023-07-25T10:34:46.966Z,25.87
2023-07-25T10:37:21.771Z,28.38
2023-07-25T10:40:10.429Z,24.37
2023-07-25T10:43:04.446Z,25.37
2023-07-25T10:45:34.502Z,25.77
2023-07-25T10:48:02.538Z,26.47
2023-07-25T10:50:52.906Z,25.63
2023-07-25T10:53:21.984Z,24.64
2023-07-25T10:56:10.921Z,25.04
2023-07-25T10:59:00.416Z,24.86
2023-07-25T11:01:46.356Z,24.29
2023-07-25T11:04:30.244Z,25.33
2023-07-25T11:07:14.059Z,24.55
2023-07-25T11:09:43.825Z,22.95
2023-07-25T11:12:15.367Z,23.61
2023-07-25T11:14:44.722Z,24.31
2023-07-25T11:17:14.077Z,26.33
2023-07-25T11:19:42.899Z,24.40
2023-07-25T11:22:13.121Z,25.50
2023-07-25T11:24:44.940Z,23.88
2023-07-25T11:27:13.626Z,22.42
2023-07-25T11:29:42.433Z,23.02
2023-07-25T11:32:10.453Z,23.87
2023-07-25T11:34:38.666Z,22.74
2023-07-25T11:37:13.454Z,22.80
2023-07-25T11:39:41.644Z,19.75
2023-07-25T11:42:09.978Z,21.28
2023-07-25T11:44:37.899Z,22.01
2023-07-25T11:47:06.305Z,22.97
2023-07-25T11:52:06.206Z,22.40
2023-07-25T11:54:35.390Z,20.89
2023-07-25T11:57:03.453Z,20.71
2023-07-25T11:59:31.285Z,21.72
2023-07-25T12:02:07.673Z,20.74
2023-07-25T12:04:44.187Z,20.39
2023-07-25T12:07:12.864Z,19.84
2023-07-25T12:09:41.390Z,20.62
2023-07-25T12:12:13.743Z,21.05
2023-07-25T12:14:42.543Z,21.19
2023-07-25T12:17:10.076Z,21.74
2023-07-25T12:19:37.439Z,20.60
2023-07-25T12:22:05.970Z,22.05
2023-07-25T12:24:42.713Z,20.93
2023-07-25T12:27:20.286Z,19.66
2023-07-25T12:29:47.749Z,20.82
2023-07-25T12:32:15.578Z,20.93
2023-07-25T12:34:43.039Z,21.77
2023-07-25T12:42:29.550Z,19.57
2023-07-25T12:45:02.465Z,19.57
2023-07-25T12:47:29.923Z,18.83
2023-07-25T12:49:57.618Z,19.79
2023-07-25T12:52:25.007Z,20.96
2023-07-25T12:54:52.522Z,20.51
2023-07-25T12:57:20.291Z,20.00
2023-07-25T12:59:48.634Z,20.85
2023-07-25T13:02:16.620Z,19.90
2023-07-25T13:04:44.517Z,19.30
2023-07-25T13:07:11.920Z,18.57
2023-07-25T13:09:39.339Z,18.47
2023-07-25T13:12:07.576Z,20.38
2023-07-25T13:14:35.096Z,19.40
2023-07-25T13:17:02.561Z,18.09
2023-07-25T13:19:30.400Z,17.94
2023-07-25T13:21:57.822Z,18.57
2023-07-25T13:24:25.365Z,18.36
2023-07-25T13:26:53.226Z,18.35
2023-07-25T13:29:20.633Z,17.95
2023-07-25T13:31:48.061Z,18.28
2023-07-25T13:34:16.087Z,18.20
2023-07-25T13:36:43.525Z,18.36
2023-07-25T13:39:10.948Z,18.16
2023-07-25T13:41:38.731Z,18.30
2023-07-25T13:44:06.259Z,19.05
2023-07-25T13:46:33.745Z,18.45
2023-07-25T13:49:01.628Z,18.17
2023-07-25T13:51:29.458Z,18.79
2023-07-25T13:53:57.196Z,20.10
2023-07-25T13:56:25.001Z,18.65
2023-07-25T13:58:53.713Z,17.71
2023-07-25T14:01:21.402Z,18.17
2023-07-25T14:03:49.115Z,17.68
2023-07-25T14:06:16.532Z,18.26
2023-07-25T14:08:43.989Z,17.71
2023-07-25T14:11:11.769Z,19.03
2023-07-25T14:13:39.205Z,17.29
2023-07-25T14:16:07.098Z,18.94
2023-07-25T14:18:34.882Z,18.51
2023-07-25T14:21:02.597Z,17.80
2023-07-25T14:23:29.790Z,19.56
2023-07-25T14:25:57.538Z,18.42
2023-07-25T14:28:25.031Z,19.35
2023-07-25T14:30:52.314Z,19.26
2023-07-25T14:33:21.987Z,18.79
2023-07-25T14:35:50.023Z,19.69
2023-07-25T14:38:18.808Z,18.50
2023-07-25T14:40:47.195Z,19.14
2023-07-25T14:43:14.771Z,19.28
2023-07-25T14:45:42.218Z,20.26
2023-07-25T14:48:10.121Z,18.81
2023-07-25T14:50:38.103Z,18.59
2023-07-25T14:53:05.629Z,17.68
2023-07-25T14:55:33.425Z,16.91
2023-07-25T14:58:01.289Z,17.89
2023-07-25T15:00:28.854Z,18.46
2023-07-25T15:02:56.726Z,17.42
2023-07-25T15:05:24.236Z,17.06
2023-07-25T15:07:51.530Z,16.75
2023-07-25T15:10:19.476Z,17.08
2023-07-25T15:12:47.545Z,17.35
2023-07-25T15:15:15.145Z,17.31
2023-07-25T15:17:43.200Z,15.15
2023-07-25T15:20:10.957Z,16.98
2023-07-25T15:22:38.738Z,15.41
2023-07-25T15:25:07.214Z,14.59
2023-07-25T15:27:35.532Z,16.77
2023-07-25T15:30:03.054Z,16.74
2023-07-25T15:32:31.436Z,16.48
2023-07-25T15:34:58.895Z,16.83
2023-07-25T15:37:26.491Z,16.53
2023-07-25T15:39:54.502Z,19.44
2023-07-25T15:42:21.921Z,19.91
2023-07-25T15:44:49.311Z,17.78
2023-07-25T15:47:17.317Z,19.65
2023-07-25T15:49:44.785Z,20.97
2023-07-25T15:52:12.317Z,19.53
2023-07-25T15:54:40.198Z,19.59
2023-07-25T15:57:07.988Z,22.03
2023-07-25T15:59:35.452Z,20.30
2023-07-25T16:02:03.406Z,21.32
2023-07-25T16:04:31.736Z,22.09
2023-07-25T16:07:00.006Z,22.23
2023-07-25T16:09:28.387Z,22.53
2023-07-25T16:11:56.478Z,22.34
2023-07-25T16:14:23.916Z,21.00
2023-07-25T16:16:51.229Z,22.15
2023-07-25T16:19:19.100Z,24.22
2023-07-25T16:21:46.495Z,27.31
2023-07-25T16:24:13.987Z,26.11
2023-07-25T16:26:41.816Z,27.77
2023-07-25T16:29:09.344Z,27.84
2023-07-25T16:31:36.846Z,27.72
2023-07-25T16:34:05.125Z,28.57
2023-07-25T16:36:32.585Z,28.44
2023-07-25T16:39:00.017Z,26.40
2023-07-25T16:41:27.898Z,27.19
2023-07-25T16:43:55.364Z,30.87
2023-07-25T16:46:22.962Z,30.68
2023-07-25T16:48:50.606Z,32.39
2023-07-25T16:51:18.555Z,32.31
2023-07-25T16:53:46.141Z,33.62
2023-07-25T16:56:14.061Z,34.22
2023-07-25T16:58:41.696Z,34.47
2023-07-25T17:01:09.239Z,34.19
2023-07-25T17:03:36.993Z,37.11
2023-07-25T17:06:05.176Z,38.35
2023-07-25T17:08:33.063Z,37.63
2023-07-25T17:11:05.860Z,36.81
2023-07-25T17:13:34.235Z,38.02
2023-07-25T17:16:02.059Z,38.51
2023-07-25T17:18:30.659Z,38.45
2023-07-25T17:20:58.254Z,38.73
2023-07-25T17:23:26.127Z,37.08
2023-07-25T17:25:53.657Z,35.02
2023-07-25T17:28:21.212Z,36.69
2023-07-25T17:30:49.066Z,37.27
2023-07-25T17:33:16.717Z,37.66
2023-07-25T17:35:44.145Z,38.70
2023-07-25T17:38:14.887Z,38.58
2023-07-25T17:40:43.369Z,40.27
2023-07-25T17:43:10.909Z,40.23
2023-07-25T17:45:38.826Z,41.38
2023-07-25T17:48:06.653Z,41.33
2023-07-25T17:50:34.096Z,41.08
2023-07-25T17:53:02.329Z,41.44
2023-07-25T17:55:29.708Z,41.96
2023-07-25T17:57:57.204Z,42.53
2023-07-25T18:00:25.050Z,41.67
2023-07-25T18:02:53.008Z,43.35
2023-07-25T18:05:21.877Z,42.28
2023-07-25T18:07:49.288Z,43.39
2023-07-25T18:10:17.087Z,43.44
2023-07-25T18:12:44.591Z,42.71
2023-07-25T18:15:12.266Z,44.49
2023-07-25T18:17:39.980Z,45.06
2023-07-25T18:20:07.937Z,44.58
2023-07-25T18:22:35.410Z,45.86
2023-07-25T18:25:03.424Z,47.17
2023-07-25T18:27:30.887Z,47.60
2023-07-25T18:29:58.392Z,47.83
2023-07-25T18:32:26.266Z,47.97
2023-07-25T18:34:53.898Z,48.27
2023-07-25T18:37:21.328Z,49.22
2023-07-25T18:39:49.087Z,49.56
2023-07-25T18:42:16.695Z,49.41
2023-07-25T18:44:44.190Z,49.64
2023-07-25T18:47:18.254Z,49.39
2023-07-25T18:49:52.548Z,49.25
2023-07-25T18:52:20.405Z,50.87
2023-07-25T18:54:47.785Z,50.01
2023-07-25T18:57:20.822Z,50.50
2023-07-25T18:59:49.112Z,49.88
2023-07-25T19:02:17.005Z,49.74
2023-07-25T19:04:45.959Z,50.59
2023-07-25T19:07:16.296Z,49.63
2023-07-25T19:09:44.144Z,49.59
2023-07-25T19:12:12.275Z,50.65
2023-07-25T19:14:40.353Z,49.47
2023-07-25T19:17:09.268Z,49.97
2023-07-25T19:19:38.114Z,51.12
2023-07-25T19:22:08.468Z,52.43
2023-07-25T19:24:36.029Z,52.91
2023-07-25T19:27:03.764Z,53.73
2023-07-25T19:29:31.603Z,54.60
2023-07-25T19:31:59.113Z,55.77
2023-07-25T19:34:26.622Z,54.26
2023-07-25T19:36:54.482Z,54.13
2023-07-25T19:39:23.218Z,55.32
2023-07-25T19:41:52.215Z,53.78
2023-07-25T19:44:21.542Z,52.92
2023-07-25T19:46:48.988Z,54.14
2023-07-25T19:49:16.506Z,54.08
2023-07-25T19:51:45.694Z,53.40
2023-07-25T19:54:15.002Z,53.49
2023-07-25T19:56:42.674Z,54.45
2023-07-25T19:59:10.493Z,54.18
2023-07-25T20:01:38.034Z,54.56
2023-07-25T20:04:05.849Z,54.70
2023-07-25T20:06:33.938Z,55.01
2023-07-25T20:09:02.889Z,55.62
2023-07-25T20:11:31.103Z,55.49
2023-07-25T20:13:59.517Z,56.79
2023-07-25T20:16:27.045Z,57.11
2023-07-25T20:18:54.948Z,57.45
2023-07-25T20:21:23.222Z,57.13
2023-07-25T20:23:50.685Z,57.79
2023-07-25T20:26:19.378Z,57.66
2023-07-25T20:28:46.806Z,58.39
2023-07-25T20:31:14.169Z,58.50
2023-07-25T20:33:42.620Z,58.36
2023-07-25T20:36:11.070Z,58.87
2023-07-25T20:38:38.514Z,60.38
2023-07-25T20:41:06.229Z,60.48
2023-07-25T20:43:33.686Z,61.07
2023-07-25T20:46:04.703Z,61.04
2023-07-25T20:48:33.270Z,60.34
2023-07-25T20:51:01.289Z,61.37
2023-07-25T20:53:28.964Z,60.59
2023-07-25T20:55:57.714Z,61.07
2023-07-25T20:58:25.586Z,62.42
2023-07-25T21:00:53.123Z,62.12
2023-07-25T21:03:21.117Z,62.89
2023-07-25T21:05:48.678Z,63.36
2023-07-25T21:08:16.349Z,62.56
2023-07-25T21:10:44.092Z,62.84
2023-07-25T21:13:11.713Z,63.05
2023-07-25T21:15:39.310Z,62.27
2023-07-25T21:18:13.681Z,61.48
2023-07-25T21:20:42.608Z,60.77
2023-07-25T21:23:11.699Z,60.73
2023-07-25T21:25:39.142Z,60.91
2023-07-25T21:28:06.700Z,62.22
2023-07-25T21:30:34.609Z,63.67
2023-07-25T21:33:02.098Z,67.03
2023-07-25T21:35:29.675Z,66.35
2023-07-25T21:37:57.482Z,65.30
2023-07-25T21:40:25.404Z,66.40
2023-07-25T21:42:52.865Z,63.82
2023-07-25T21:45:20.740Z,63.24
2023-07-25T21:47:48.381Z,61.99
2023-07-25T21:50:15.897Z,62.19
2023-07-25T21:52:43.800Z,61.70
2023-07-25T21:55:11.241Z,62.29
2023-07-25T21:57:38.629Z,61.87
2023-07-25T22:00:07.473Z,62.97
2023-07-25T22:02:39.634Z,62.96
2023-07-25T22:05:07.949Z,62.54
2023-07-25T22:07:35.401Z,62.68
2023-07-25T22:10:02.912Z,62.18
2023-07-25T22:12:30.770Z,61.98
2023-07-25T22:14:58.179Z,61.96
2023-07-25T22:17:25.604Z,63.26
2023-07-25T22:19:53.308Z,63.05
2023-07-25T22:22:20.747Z,62.62
2023-07-25T22:24:48.220Z,62.73
2023-07-25T22:27:15.968Z,62.55
2023-07-25T22:29:46.668Z,61.76
2023-07-25T22:32:14.144Z,61.63
2023-07-25T22:34:41.930Z,60.31
2023-07-25T22:37:09.435Z,58.80
2023-07-25T22:39:36.965Z,59.72
2023-07-25T22:42:05.132Z,59.36
2023-07-25T22:44:32.484Z,58.64
2023-07-25T22:46:59.731Z,57.89
2023-07-25T22:49:27.568Z,57.33
2023-07-25T22:51:55.053Z,57.88
2023-07-25T22:54:23.198Z,58.30
2023-07-25T22:56:51.062Z,58.65
2023-07-25T22:59:18.889Z,59.25
2023-07-25T23:01:46.441Z,60.06
2023-07-25T23:04:14.269Z,60.26
2023-07-25T23:06:41.965Z,60.02
2023-07-25T23:09:09.470Z,59.82
2023-07-25T23:11:37.173Z,59.97
2023-07-25T23:14:04.957Z,60.29
2023-07-25T23:16:32.757Z,60.88
2023-07-25T23:19:00.721Z,60.81
2023-07-25T23:21:28.311Z,60.63
2023-07-25T23:23:55.909Z,60.42
2023-07-25T23:26:23.707Z,60.16
2023-07-25T23:28:53.882Z,60.24
2023-07-25T23:31:21.487Z,60.08
2023-07-25T23:33:49.451Z,59.56
2023-07-25T23:36:16.868Z,59.77
2023-07-25T23:38:44.370Z,60.30
2023-07-25T23:41:12.019Z,60.57
2023-07-25T23:43:39.488Z,61.72
2023-07-25T23:46:06.920Z,61.56
2023-07-25T23:48:37.014Z,61.64
2023-07-25T23:51:04.663Z,62.29
2023-07-25T23:53:32.071Z,62.89
2023-07-25T23:55:59.913Z,63.06
2023-07-25T23:58:27.479Z,63.39
